createdAt,value
2022-12-11T00:01:20.601Z,100312.88
2022-12-11T00:03:47.568Z,100308.66
2022-12-11T00:06:17.612Z,100308.66
2022-12-11T00:08:44.435Z,100304.69
2022-12-11T00:11:16.088Z,100296.53
2022-12-11T00:13:42.765Z,100295.34
2022-12-11T00:16:09.883Z,100302.97
2022-12-11T00:18:36.484Z,100298.56
2022-12-11T00:21:07.228Z,100305.09
2022-12-11T00:23:35.531Z,100302.19
2022-12-11T00:26:06.673Z,100306.28
2022-12-11T00:28:32.966Z,100309.16
2022-12-11T00:30:59.068Z,100302.72
2022-12-11T00:33:26.965Z,100308.31
2022-12-11T00:35:53.062Z,100302.38
2022-12-11T00:38:21.533Z,100308.84
2022-12-11T00:40:48.321Z,100306.44
2022-12-11T00:43:15.110Z,100302.47
2022-12-11T00:45:43.872Z,100299.94
2022-12-11T00:48:10.843Z,100302.41
2022-12-11T00:50:37.859Z,100301.94
2022-12-11T00:53:05.618Z,100295.53
2022-12-11T00:55:32.009Z,100292.00
2022-12-11T00:57:58.458Z,100299.59
2022-12-11T01:00:25.247Z,100296.38
2022-12-11T01:02:51.522Z,100300.34
2022-12-11T01:05:17.654Z,100300.97
2022-12-11T01:07:43.798Z,100299.75
2022-12-11T01:10:24.725Z,100298.66
2022-12-11T01:12:57.416Z,100301.38
2022-12-11T01:15:26.680Z,100302.16
2022-12-11T01:17:52.792Z,100299.78
2022-12-11T01:20:20.694Z,100308.72
2022-12-11T01:22:48.109Z,100302.63
2022-12-11T01:25:14.585Z,100295.88
2022-12-11T01:27:40.807Z,100307.31
2022-12-11T01:30:08.741Z,100304.50
2022-12-11T01:32:35.581Z,100310.59
2022-12-11T01:35:07.164Z,100308.66
2022-12-11T01:37:33.797Z,100314.09
2022-12-11T01:40:01.461Z,100309.34
2022-12-11T01:42:29.584Z,100308.81
2022-12-11T01:45:44.824Z,100309.06
2022-12-11T01:48:16.107Z,100305.53
2022-12-11T01:50:49.162Z,100311.47
2022-12-11T01:53:23.500Z,100306.22
2022-12-11T01:55:53.639Z,100302.63
2022-12-11T01:58:22.317Z,100303.16
2022-12-11T02:00:48.468Z,100305.59
2022-12-11T02:03:14.626Z,100312.38
2022-12-11T02:05:40.760Z,100315.19
2022-12-11T02:08:08.140Z,100306.69
2022-12-11T02:10:55.128Z,100302.97
2022-12-11T02:13:35.812Z,100301.44
2022-12-11T02:16:18.274Z,100296.38
2022-12-11T02:18:59.528Z,100300.28
2022-12-11T02:21:32.607Z,100296.69
2022-12-11T02:24:16.945Z,100294.53
2022-12-11T02:27:08.506Z,100293.06
2022-12-11T02:29:43.914Z,100287.47
2022-12-11T02:32:22.378Z,100292.09
2022-12-11T02:34:55.483Z,100289.41
2022-12-11T02:37:24.745Z,100288.22
2022-12-11T02:39:54.050Z,100279.84
2022-12-11T02:42:21.343Z,100287.88
2022-12-11T02:44:49.656Z,100286.34
2022-12-11T02:47:17.542Z,100285.31
2022-12-11T02:49:48.298Z,100281.94
2022-12-11T02:52:19.298Z,100279.22
2022-12-11T02:54:47.176Z,100284.41
2022-12-11T02:57:35.929Z,100285.84
2022-12-11T03:00:02.121Z,100281.59
2022-12-11T03:02:28.285Z,100277.41
2022-12-11T03:04:54.620Z,100278.78
2022-12-11T03:07:27.681Z,100285.63
2022-12-11T03:09:54.360Z,100276.75
2022-12-11T03:12:25.759Z,100282.25
2022-12-11T03:14:51.980Z,100285.09
2022-12-11T03:17:22.438Z,100284.00
2022-12-11T03:20:05.671Z,100282.59
2022-12-11T03:22:39.245Z,100281.31
2022-12-11T03:25:22.139Z,100277.00
2022-12-11T03:28:11.587Z,100273.09
2022-12-11T03:30:39.018Z,100266.16
2022-12-11T03:33:11.899Z,100264.16
2022-12-11T03:35:43.288Z,100269.34
2022-12-11T03:38:19.435Z,100267.06
2022-12-11T03:40:49.680Z,100270.53
2022-12-11T03:43:17.742Z,100272.19
2022-12-11T03:45:46.994Z,100266.44
2022-12-11T03:48:15.338Z,100270.41
2022-12-11T03:50:42.084Z,100269.75
2022-12-11T03:53:08.348Z,100265.16
2022-12-11T03:55:37.709Z,100273.03
2022-12-11T03:58:05.182Z,100269.97
2022-12-11T04:00:31.309Z,100263.66
2022-12-11T04:03:17.854Z,100271.22
2022-12-11T04:05:49.277Z,100273.91
2022-12-11T04:08:16.688Z,100271.00
2022-12-11T04:10:43.496Z,100270.59
2022-12-11T04:13:10.411Z,100277.78
2022-12-11T04:15:38.421Z,100271.84
2022-12-11T04:18:24.425Z,100277.66
2022-12-11T04:21:12.562Z,100285.84
2022-12-11T04:23:57.153Z,100286.38
2022-12-11T04:26:23.277Z,100280.09
2022-12-11T04:28:50.007Z,100285.00
2022-12-11T04:31:22.412Z,100274.09
2022-12-11T04:33:48.828Z,100274.03
2022-12-11T04:36:15.474Z,100278.41
2022-12-11T04:38:41.585Z,100273.00
2022-12-11T04:41:11.836Z,100268.94
2022-12-11T04:43:38.265Z,100267.50
2022-12-11T04:46:09.211Z,100273.66
2022-12-11T04:48:36.292Z,100261.16
2022-12-11T04:51:02.525Z,100262.59
2022-12-11T04:53:28.637Z,100256.75
2022-12-11T10:22:36.358Z,100228.03
2022-12-11T10:25:11.215Z,100223.00
2022-12-11T10:27:39.606Z,100219.19
2022-12-11T10:30:16.024Z,100213.47
2022-12-11T10:33:01.713Z,100212.31
2022-12-11T10:35:39.456Z,100208.81
2022-12-11T10:38:18.519Z,100203.41
2022-12-11T10:40:52.238Z,100200.25
2022-12-11T10:43:18.669Z,100191.44
2022-12-11T10:45:52.725Z,100195.66
2022-12-11T10:48:19.978Z,100190.50
2022-12-11T10:51:05.326Z,100189.41
2022-12-11T10:53:33.406Z,100180.28
2022-12-11T10:56:00.111Z,100192.88
2022-12-11T10:58:34.029Z,100179.84
2022-12-11T11:01:11.018Z,100176.34
2022-12-11T11:03:53.382Z,100182.75
2022-12-11T11:06:21.834Z,100173.63
2022-12-11T11:08:51.192Z,100167.34
2022-12-11T11:11:33.883Z,100171.47
2022-12-11T11:14:20.382Z,100167.97
2022-12-11T11:16:52.010Z,100167.81
2022-12-11T11:19:25.930Z,100173.81
2022-12-11T11:21:56.419Z,100173.47
2022-12-11T11:24:38.465Z,100161.03
2022-12-11T11:27:29.966Z,100170.63
2022-12-11T11:30:00.502Z,100166.41
2022-12-11T11:32:33.565Z,100161.88
2022-12-11T11:35:12.771Z,100163.47
2022-12-11T11:37:42.015Z,100162.19
2022-12-11T11:40:19.423Z,100146.47
2022-12-11T11:42:56.481Z,100146.31
2022-12-11T11:45:31.854Z,100139.81
2022-12-11T11:48:11.661Z,100131.75
2022-12-11T11:50:41.155Z,100150.25
2022-12-11T11:53:25.890Z,100142.69
2022-12-11T11:56:04.417Z,100137.50
2022-12-11T11:58:41.880Z,100129.78
2022-12-11T12:01:26.472Z,100123.53
2022-12-11T12:03:53.298Z,100120.06
2022-12-11T12:06:28.268Z,100127.88
2022-12-11T12:09:18.025Z,100132.28
2022-12-11T12:12:10.857Z,100140.94
2022-12-11T12:15:01.962Z,100135.41
2022-12-11T12:17:55.126Z,100138.50
2022-12-11T12:20:25.041Z,100136.06
2022-12-11T12:23:00.376Z,100137.47
2022-12-11T12:25:35.774Z,100139.63
2022-12-11T12:28:25.712Z,100132.03
2022-12-11T12:31:06.109Z,100137.75
2022-12-11T12:33:49.869Z,100137.47
2022-12-11T12:36:24.844Z,100140.97
2022-12-11T12:38:54.353Z,100137.84
2022-12-11T12:42:07.315Z,100140.22
2022-12-11T12:44:47.896Z,100140.84
2022-12-11T12:47:17.582Z,100141.16
2022-12-11T12:49:46.923Z,100141.72
2022-12-11T12:52:19.560Z,100152.50
2022-12-11T12:55:06.355Z,100144.88
2022-12-11T12:57:34.889Z,100149.97
2022-12-11T13:00:01.080Z,100141.91
2022-12-11T13:02:27.773Z,100138.41
2022-12-11T13:05:00.669Z,100137.94
2022-12-11T13:07:30.532Z,100134.72
2022-12-11T13:10:07.834Z,100129.44
2022-12-11T13:12:45.948Z,100132.34
2022-12-11T13:15:45.299Z,100132.56
2022-12-11T13:18:31.718Z,100130.19
2022-12-11T13:20:57.828Z,100126.72
2022-12-11T13:23:30.844Z,100132.16
2022-12-11T13:25:59.724Z,100130.56
2022-12-11T13:28:47.508Z,100129.19
2022-12-11T13:31:16.318Z,100120.53
2022-12-11T13:33:56.583Z,100120.75
2022-12-11T13:36:39.852Z,100121.97
2022-12-11T13:39:17.301Z,100111.16
2022-12-11T13:41:48.260Z,100113.72
2022-12-11T13:44:26.494Z,100112.03
2022-12-11T13:46:55.252Z,100108.00
2022-12-11T13:49:24.502Z,100105.28
2022-12-11T13:51:58.782Z,100098.31
2022-12-11T13:54:26.158Z,100099.25
2022-12-11T13:56:56.362Z,100103.75
2022-12-11T13:59:36.268Z,100102.25
2022-12-11T14:02:17.914Z,100104.13
2022-12-11T14:04:44.442Z,100102.19
2022-12-11T14:07:11.351Z,100106.72
2022-12-11T14:09:44.363Z,100099.75
2022-12-11T14:12:20.668Z,100107.72
2022-12-11T14:14:54.975Z,100116.38
2022-12-11T14:17:27.037Z,100096.09
2022-12-11T14:19:56.094Z,100100.41
2022-12-11T14:22:25.569Z,100104.34
2022-12-11T14:24:56.553Z,100103.50
2022-12-11T14:27:23.397Z,100108.00
2022-12-11T14:29:50.128Z,100104.72
2022-12-11T14:32:31.156Z,100113.91
2022-12-11T14:34:58.608Z,100104.25
2022-12-11T14:37:28.601Z,100111.66
2022-12-11T14:40:17.858Z,100107.06
2022-12-11T14:42:57.048Z,100106.31
2022-12-11T14:45:33.406Z,100109.59
2022-12-11T14:48:01.937Z,100113.47
2022-12-11T14:50:39.376Z,100111.13
2022-12-11T14:53:15.624Z,100109.31
2022-12-11T14:55:42.130Z,100117.03
2022-12-11T14:58:24.250Z,100117.28
2022-12-11T15:01:00.535Z,100109.81
2022-12-11T15:03:34.344Z,100112.78
2022-12-11T15:06:01.747Z,100114.56
2022-12-11T15:08:33.354Z,100114.66
2022-12-11T15:11:16.731Z,100114.88
2022-12-11T15:13:56.821Z,100109.78
2022-12-11T15:16:25.600Z,100110.81
2022-12-11T15:18:54.389Z,100115.41
2022-12-11T15:21:29.693Z,100102.81
2022-12-11T15:23:58.299Z,100105.38
2022-12-11T15:26:45.629Z,100097.56
2022-12-11T15:29:30.348Z,100114.75
2022-12-11T15:32:04.289Z,100109.19
2022-12-11T15:34:35.544Z,100107.41
2022-12-11T15:37:01.689Z,100113.19
2022-12-11T15:39:27.786Z,100116.13
2022-12-11T15:41:54.032Z,100113.41
2022-12-11T15:44:22.427Z,100111.47
2022-12-11T15:46:48.549Z,100115.22
2022-12-11T15:49:15.233Z,100120.91
2022-12-11T15:51:43.404Z,100120.31
2022-12-11T15:54:09.759Z,100125.03
2022-12-11T15:56:35.876Z,100127.44
2022-12-11T15:59:06.851Z,100114.31
2022-12-11T16:01:33.015Z,100124.06
2022-12-11T16:04:03.331Z,100126.44
2022-12-11T16:06:31.127Z,100118.75
2022-12-11T16:08:57.220Z,100125.31
2022-12-11T16:11:23.468Z,100117.16
2022-12-11T16:13:49.624Z,100122.41
2022-12-11T16:16:15.874Z,100115.56
2022-12-11T16:18:47.046Z,100118.09
2022-12-11T16:21:16.844Z,100117.44
2022-12-11T16:23:47.237Z,100117.06
2022-12-11T16:26:14.566Z,100116.03
2022-12-11T16:28:40.679Z,100114.00
2022-12-11T16:31:11.371Z,100108.84
2022-12-11T16:33:37.539Z,100113.34
2022-12-11T16:36:12.559Z,100112.75
2022-12-11T16:38:38.683Z,100108.97
2022-12-11T16:41:04.881Z,100112.72
2022-12-11T16:43:32.318Z,100118.16
2022-12-11T16:45:58.458Z,100106.34
2022-12-11T16:48:24.607Z,100097.34
2022-12-11T16:50:53.919Z,100101.34
2022-12-11T16:53:20.470Z,100103.88
2022-12-11T16:55:46.561Z,100100.66
2022-12-11T16:58:18.073Z,100094.31
2022-12-11T17:00:44.318Z,100102.38
2022-12-11T17:03:10.647Z,100099.16
2022-12-11T17:05:39.692Z,100105.53
2022-12-11T17:08:06.860Z,100097.56
2022-12-11T17:10:33.188Z,100098.41
2022-12-11T17:12:59.357Z,100099.16
2022-12-11T17:15:25.498Z,100093.06
2022-12-11T17:17:51.611Z,100096.53
2022-12-11T17:20:18.399Z,100094.84
2022-12-11T17:22:46.038Z,100095.69
2022-12-11T17:25:12.532Z,100093.34
2022-12-11T17:27:38.986Z,100090.81
2022-12-11T17:30:05.445Z,100090.28
2022-12-11T17:32:31.530Z,100086.66
2022-12-11T17:34:57.642Z,100098.69
2022-12-11T17:37:23.754Z,100086.59
2022-12-11T17:39:49.852Z,100094.72
2022-12-11T17:42:15.939Z,100091.25
2022-12-11T17:44:42.067Z,100090.28
2022-12-11T17:47:11.279Z,100088.44
2022-12-11T17:49:38.815Z,100086.75
2022-12-11T17:52:05.025Z,100090.28
2022-12-11T17:54:31.257Z,100090.50
2022-12-11T17:56:57.404Z,100078.97
2022-12-11T17:59:23.652Z,100089.38
2022-12-11T18:01:49.848Z,100079.16
2022-12-11T18:04:15.981Z,100084.56
2022-12-11T18:06:42.071Z,100075.28
2022-12-11T18:09:08.348Z,100078.72
2022-12-11T18:11:34.845Z,100091.59
2022-12-11T18:14:00.940Z,100095.91
2022-12-11T18:16:30.095Z,100087.13
2022-12-11T18:18:56.665Z,100092.91
2022-12-11T18:21:27.064Z,100090.28
2022-12-11T18:23:53.297Z,100096.78
2022-12-11T18:26:20.303Z,100107.25
2022-12-11T18:28:47.473Z,100099.41
2022-12-11T18:31:14.173Z,100105.72
2022-12-11T18:33:41.984Z,100103.69
2022-12-11T18:36:08.580Z,100102.66
2022-12-11T18:38:35.661Z,100103.19
2022-12-11T18:41:07.301Z,100110.84
2022-12-11T18:43:33.386Z,100112.84
2022-12-11T18:46:05.939Z,100111.28
2022-12-11T18:48:32.065Z,100115.84
2022-12-11T18:50:58.166Z,100115.22
2022-12-11T18:53:24.253Z,100112.81
2022-12-11T18:55:50.771Z,100118.56
2022-12-11T18:58:19.186Z,100111.81
2022-12-11T19:00:45.930Z,100119.34
2022-12-11T19:03:13.786Z,100112.13
2022-12-11T19:05:42.615Z,100106.59
2022-12-11T19:08:10.386Z,100116.09
2022-12-11T19:10:42.731Z,100108.94
2022-12-11T19:13:09.147Z,100115.59
2022-12-11T19:15:39.228Z,100112.88
2022-12-11T19:18:05.731Z,100111.66
2022-12-11T19:20:48.487Z,100112.31
2022-12-11T19:23:15.662Z,100108.13
2022-12-11T19:25:47.374Z,100106.22
2022-12-11T19:28:14.140Z,100097.78
2022-12-11T19:30:48.885Z,100101.34
2022-12-11T19:33:16.101Z,100103.97
2022-12-11T19:35:43.208Z,100103.03
2022-12-11T19:38:09.956Z,100098.34
2022-12-11T19:40:41.186Z,100096.81
2022-12-11T19:43:07.277Z,100105.91
2022-12-11T19:45:33.365Z,100106.56
2022-12-11T19:47:59.466Z,100102.63
2022-12-11T19:50:25.577Z,100109.81
2022-12-11T19:52:51.661Z,100109.66
2022-12-11T19:55:19.639Z,100105.63
2022-12-11T19:57:45.737Z,100106.94
2022-12-11T20:00:12.333Z,100113.03
2022-12-11T20:02:38.398Z,100116.13
2022-12-11T20:05:04.773Z,100109.19
2022-12-11T20:07:30.951Z,100105.44
2022-12-11T20:09:57.249Z,100104.25
2022-12-11T20:12:24.478Z,100102.16
2022-12-11T20:14:50.640Z,100102.75
2022-12-11T20:17:16.781Z,100099.44
2022-12-11T20:19:43.018Z,100099.16
2022-12-11T20:22:09.871Z,100094.56
2022-12-11T20:24:36.353Z,100091.66
2022-12-11T20:27:02.533Z,100086.09
2022-12-11T20:29:28.626Z,100084.06
2022-12-11T20:31:54.790Z,100085.72
2022-12-11T20:34:20.914Z,100092.56
2022-12-11T20:36:48.339Z,100087.81
2022-12-11T20:39:15.244Z,100085.72
2022-12-11T20:41:41.371Z,100081.59
2022-12-11T20:44:07.614Z,100081.66
2022-12-11T20:46:33.727Z,100071.25
2022-12-11T20:49:00.226Z,100074.41
2022-12-11T20:51:28.090Z,100078.16
2022-12-11T20:53:59.573Z,100074.38
2022-12-11T20:56:28.571Z,100069.88
2022-12-11T20:58:54.993Z,100070.84
2022-12-11T21:01:23.859Z,100061.25
2022-12-11T21:03:50.388Z,100065.41
2022-12-11T21:06:21.766Z,100063.59
2022-12-11T21:08:47.996Z,100075.09
2022-12-11T21:11:14.327Z,100078.41
2022-12-11T21:13:41.028Z,100085.94
2022-12-11T21:16:08.462Z,100086.78
2022-12-11T21:18:34.710Z,100091.63
2022-12-11T21:21:00.849Z,100078.81
2022-12-11T21:23:26.937Z,100086.59
2022-12-11T21:25:53.273Z,100083.22
2022-12-11T21:28:20.245Z,100092.69
2022-12-11T21:30:46.600Z,100096.25
2022-12-11T21:33:12.784Z,100110.28
2022-12-11T21:35:38.901Z,100118.88
2022-12-11T21:38:05.158Z,100116.84
2022-12-11T21:40:31.406Z,100116.03
2022-12-11T21:42:57.724Z,100112.94
2022-12-11T21:45:59.801Z,100114.25
2022-12-11T21:48:11.158Z,100120.03
2022-12-11T21:50:38.290Z,100127.06
2022-12-11T21:53:04.509Z,100119.50
2022-12-11T21:55:30.695Z,100112.44
2022-12-11T21:57:56.785Z,100112.09
2022-12-11T22:00:23.141Z,100117.38
2022-12-11T22:02:49.693Z,100117.53
2022-12-11T22:05:15.836Z,100113.63
2022-12-11T22:07:41.952Z,100120.50
2022-12-11T22:10:08.540Z,100118.78
2022-12-11T22:12:34.665Z,100112.59
2022-12-11T22:15:00.769Z,100107.72
2022-12-11T22:17:26.974Z,100103.41
2022-12-11T22:19:54.824Z,100095.63
2022-12-11T22:22:21.004Z,100084.28
2022-12-11T22:24:47.089Z,100085.19
2022-12-11T22:27:13.263Z,100075.81
2022-12-11T22:29:39.343Z,100077.59
2022-12-11T22:32:05.455Z,100072.81
2022-12-11T22:34:31.582Z,100073.38
2022-12-11T22:36:57.751Z,100061.94
2022-12-11T22:39:24.723Z,100070.66
2022-12-11T22:41:50.959Z,100063.03
2022-12-11T22:44:19.530Z,100068.78
2022-12-11T22:46:50.010Z,100065.78
2022-12-11T22:49:16.770Z,100064.75
2022-12-11T22:51:42.872Z,100065.41
2022-12-11T22:54:08.986Z,100058.66
2022-12-11T22:56:35.101Z,100062.13
2022-12-11T22:59:01.212Z,100048.97
2022-12-11T23:01:28.396Z,100055.06
2022-12-11T23:03:54.687Z,100051.25
2022-12-11T23:06:23.318Z,100054.13
2022-12-11T23:08:49.831Z,100046.38
2022-12-11T23:11:22.933Z,100053.13
2022-12-11T23:13:49.012Z,100054.88
2022-12-11T23:16:15.168Z,100057.88
2022-12-11T23:18:41.339Z,100058.09
2022-12-11T23:21:08.193Z,100064.00
2022-12-11T23:23:34.368Z,100061.38
2022-12-11T23:26:00.829Z,100053.28
2022-12-11T23:28:26.910Z,100056.66
2022-12-11T23:30:53.054Z,100068.47
2022-12-11T23:33:19.230Z,100057.03
2022-12-11T23:35:45.418Z,100061.25
2022-12-11T23:38:11.536Z,100055.53
2022-12-11T23:40:37.689Z,100063.78
2022-12-11T23:43:03.786Z,100054.13
2022-12-11T23:45:29.921Z,100056.00
2022-12-11T23:47:56.141Z,100047.19
2022-12-11T23:50:24.631Z,100048.78
2022-12-11T23:52:50.748Z,100048.03
2022-12-11T23:55:16.856Z,100042.59
2022-12-11T23:57:42.964Z,100045.13
